createdAt,value
2023-02-14T00:00:05.859Z,70.73
2023-02-14T00:02:11.122Z,71.05
2023-02-14T00:04:14.167Z,65.43
2023-02-14T00:06:16.830Z,68.20
2023-02-14T00:08:19.264Z,65.75
2023-02-14T00:10:21.730Z,64.87
2023-02-14T00:12:24.109Z,63.78
2023-02-14T00:14:44.886Z,65.30
2023-02-14T00:16:47.748Z,66.05
2023-02-14T00:19:05.445Z,71.10
2023-02-14T00:21:07.894Z,72.70
2023-02-14T00:23:10.337Z,71.30
2023-02-14T00:25:12.942Z,75.05
2023-02-14T00:27:15.404Z,73.30
2023-02-14T00:29:24.138Z,78.97
2023-02-14T00:31:26.743Z,82.33
2023-02-14T00:33:29.285Z,86.90
2023-02-14T00:35:31.715Z,85.95
2023-02-14T00:37:34.513Z,81.22
2023-02-14T00:39:36.959Z,81.78
2023-02-14T00:41:40.160Z,78.77
2023-02-14T00:43:42.563Z,77.13
2023-02-14T00:45:44.993Z,76.28
2023-02-14T00:47:47.505Z,75.28
2023-02-14T00:49:49.879Z,72.38
2023-02-14T00:51:52.326Z,74.73
2023-02-14T00:53:55.143Z,75.97
2023-02-14T00:55:57.564Z,77.00
2023-02-14T00:57:59.998Z,74.00
2023-02-14T01:00:02.491Z,76.82
2023-02-14T01:02:04.993Z,75.60
2023-02-14T01:04:07.923Z,72.25
2023-02-14T01:06:10.519Z,71.55
2023-02-14T01:08:12.886Z,72.57
2023-02-14T01:10:15.295Z,77.65
2023-02-14T01:12:17.706Z,73.97
2023-02-14T01:14:20.123Z,72.20
2023-02-14T01:16:23.851Z,71.53
2023-02-14T01:18:26.357Z,71.43
2023-02-14T01:20:28.981Z,77.63
2023-02-14T01:22:36.609Z,74.80
2023-02-14T01:24:39.009Z,75.80
2023-02-14T01:26:41.413Z,76.40
2023-02-14T01:28:44.114Z,72.40
2023-02-14T01:30:46.579Z,80.97
2023-02-14T01:32:49.026Z,79.80
2023-02-14T01:34:51.451Z,78.65
2023-02-14T01:36:53.978Z,79.60
2023-02-14T01:38:59.169Z,74.65
2023-02-14T01:41:01.739Z,73.57
2023-02-14T01:43:04.720Z,73.23
2023-02-14T01:45:19.718Z,71.15
2023-02-14T01:47:22.868Z,73.13
2023-02-14T01:49:29.598Z,75.15
2023-02-14T01:51:33.648Z,72.88
2023-02-14T01:53:36.083Z,75.57
2023-02-14T01:55:41.994Z,71.40
2023-02-14T01:58:05.442Z,70.50
2023-02-14T02:00:28.238Z,60.45
2023-02-14T02:02:30.908Z,58.15
2023-02-14T02:04:36.685Z,54.20
2023-02-14T02:06:42.019Z,53.20
2023-02-14T02:08:56.188Z,55.45
2023-02-14T02:10:58.896Z,52.45
2023-02-14T02:13:06.156Z,51.90
2023-02-14T02:15:09.303Z,50.30
2023-02-14T02:17:17.190Z,50.92
2023-02-14T02:19:41.250Z,54.17
2023-02-14T02:22:19.021Z,49.92
2023-02-14T02:24:32.233Z,51.85
2023-02-14T02:26:43.486Z,51.27
2023-02-14T02:29:03.949Z,51.97
2023-02-14T02:31:32.893Z,51.35
2023-02-14T02:33:59.544Z,49.30
2023-02-14T02:36:11.064Z,49.30
2023-02-14T02:38:48.293Z,52.73
2023-02-14T02:41:09.146Z,52.55
2023-02-14T02:43:49.679Z,54.33
2023-02-14T02:46:29.447Z,50.53
2023-02-14T02:49:06.613Z,50.75
2023-02-14T02:51:35.084Z,47.33
2023-02-14T02:53:51.890Z,50.70
2023-02-14T02:56:35.216Z,49.33
2023-02-14T02:58:47.175Z,46.85
2023-02-14T03:00:51.931Z,52.00
2023-02-14T03:03:15.486Z,56.00
2023-02-14T03:05:17.905Z,60.85
2023-02-14T03:07:36.634Z,72.05
2023-02-14T03:09:41.851Z,78.25
2023-02-14T03:11:51.958Z,79.55
2023-02-14T03:14:14.148Z,85.43
2023-02-14T03:16:38.727Z,84.55
2023-02-14T03:19:18.258Z,77.07
2023-02-14T03:21:35.657Z,80.78
2023-02-14T03:23:45.293Z,77.55
2023-02-14T03:26:12.461Z,69.27
2023-02-14T03:28:27.458Z,67.10
2023-02-14T03:30:59.112Z,67.85
2023-02-14T03:33:08.908Z,64.75
2023-02-14T03:35:11.343Z,67.00
2023-02-14T03:37:19.524Z,65.57
2023-02-14T03:39:26.648Z,61.88
2023-02-14T03:41:34.188Z,62.20
2023-02-14T03:43:43.510Z,59.60
2023-02-14T03:46:23.312Z,58.53
2023-02-14T03:48:27.464Z,56.83
2023-02-14T03:50:31.626Z,56.03
2023-02-14T03:52:35.642Z,58.83
2023-02-14T03:54:38.228Z,57.15
2023-02-14T03:57:12.548Z,55.97
2023-02-14T03:59:17.326Z,52.17
2023-02-14T04:01:30.875Z,55.47
2023-02-14T04:03:34.414Z,55.55
2023-02-14T04:05:38.553Z,56.17
2023-02-14T04:07:51.603Z,53.38
2023-02-14T04:09:54.026Z,54.63
2023-02-14T04:11:56.390Z,53.70
2023-02-14T04:13:58.762Z,54.13
2023-02-14T04:16:01.231Z,52.63
2023-02-14T04:18:22.280Z,50.63
2023-02-14T04:20:25.222Z,49.17
2023-02-14T04:22:27.806Z,49.90
2023-02-14T04:24:30.249Z,53.53
2023-02-14T04:26:32.645Z,51.72
2023-02-14T04:28:35.195Z,50.47
2023-02-14T04:30:37.629Z,51.07
2023-02-14T04:32:41.656Z,53.35
2023-02-14T04:34:44.310Z,53.85
2023-02-14T04:36:46.684Z,50.17
2023-02-14T04:38:49.092Z,55.25
2023-02-14T04:40:51.917Z,50.73
2023-02-14T04:42:54.369Z,51.03
2023-02-14T04:44:56.888Z,50.95
2023-02-14T04:46:59.309Z,47.42
2023-02-14T04:49:01.697Z,50.38
2023-02-14T04:51:04.219Z,50.30
2023-02-14T04:53:06.624Z,49.38
2023-02-14T04:55:09.889Z,48.00
2023-02-14T04:57:12.258Z,45.78
2023-02-14T04:59:14.823Z,45.33
2023-02-14T05:01:17.278Z,43.73
2023-02-14T05:03:19.657Z,46.10
2023-02-14T05:05:22.036Z,41.63
2023-02-14T05:07:24.534Z,45.55
2023-02-14T05:09:27.083Z,46.72
2023-02-14T05:11:30.245Z,46.27
2023-02-14T05:13:32.735Z,44.67
2023-02-14T05:15:37.484Z,51.15
2023-02-14T05:17:41.015Z,48.05
2023-02-14T05:19:43.436Z,49.53
2023-02-14T05:21:45.970Z,49.90
2023-02-14T05:23:48.433Z,49.50
2023-02-14T05:25:51.648Z,50.90
2023-02-14T05:27:54.895Z,50.33
2023-02-14T05:29:57.317Z,53.17
2023-02-14T05:31:59.838Z,53.10
2023-02-14T05:34:02.302Z,49.40
2023-02-14T05:36:05.118Z,54.33
2023-02-14T05:38:07.592Z,50.53
2023-02-14T05:40:13.445Z,51.53
2023-02-14T05:42:16.073Z,52.03
2023-02-14T05:44:18.544Z,53.80
2023-02-14T05:46:21.040Z,58.38
2023-02-14T05:48:23.862Z,54.20
2023-02-14T05:50:26.305Z,53.35
2023-02-14T05:52:28.683Z,53.67
2023-02-14T05:54:31.085Z,53.65
2023-02-14T05:56:33.522Z,60.90
2023-02-14T05:58:36.188Z,60.50
2023-02-14T06:00:40.936Z,59.58
2023-02-14T06:02:43.609Z,67.20
2023-02-14T06:04:46.109Z,75.40
2023-02-14T06:06:48.652Z,71.57
2023-02-14T06:08:51.060Z,72.53
2023-02-14T06:10:53.664Z,64.80
2023-02-14T06:12:56.470Z,66.40
2023-02-14T06:14:58.894Z,65.32
2023-02-14T06:17:01.398Z,72.25
2023-02-14T06:19:03.918Z,64.82
2023-02-14T06:21:06.607Z,62.03
2023-02-14T06:23:09.091Z,64.90
2023-02-14T06:25:11.574Z,61.92
2023-02-14T06:27:13.979Z,51.08
2023-02-14T06:29:17.892Z,61.83
2023-02-14T06:31:20.463Z,64.90
2023-02-14T06:33:22.989Z,90.20
2023-02-14T06:35:25.472Z,69.07
2023-02-14T06:37:27.952Z,57.28
2023-02-14T06:39:30.296Z,53.20
2023-02-14T06:41:32.680Z,54.13
2023-02-14T06:43:35.625Z,53.67
2023-02-14T06:45:38.111Z,48.05
2023-02-14T06:47:40.639Z,50.45
2023-02-14T06:49:43.089Z,45.22
2023-02-14T06:51:45.598Z,45.58
2023-02-14T06:53:48.021Z,49.47
2023-02-14T06:55:50.705Z,46.65
2023-02-14T06:57:53.104Z,45.30
2023-02-14T06:59:55.524Z,43.17
2023-02-14T07:01:58.024Z,48.92
2023-02-14T07:04:00.427Z,42.13
2023-02-14T07:06:03.011Z,41.50
2023-02-14T07:08:07.272Z,40.30
2023-02-14T07:10:12.120Z,34.55
2023-02-14T07:12:14.788Z,34.30
2023-02-14T07:14:17.232Z,30.53
2023-02-14T07:16:19.698Z,24.00
2023-02-14T07:18:22.165Z,24.67
2023-02-14T07:20:24.909Z,25.00
2023-02-14T07:22:28.623Z,24.63
2023-02-14T07:24:31.935Z,21.87
2023-02-14T07:26:34.334Z,21.10
2023-02-14T07:28:36.778Z,21.13
2023-02-14T07:30:39.216Z,21.67
2023-02-14T07:32:41.988Z,23.38
2023-02-14T07:34:44.725Z,21.33
2023-02-14T07:36:47.209Z,23.73
2023-02-14T07:38:49.742Z,25.52
2023-02-14T07:40:54.340Z,23.38
2023-02-14T07:42:58.419Z,23.45
2023-02-14T07:45:09.376Z,23.47
2023-02-14T07:47:21.925Z,24.20
2023-02-14T07:49:24.397Z,21.45
2023-02-14T07:51:26.971Z,19.88
2023-02-14T07:53:29.449Z,19.10
2023-02-14T07:55:31.881Z,17.97
2023-02-14T07:57:34.402Z,18.88
2023-02-14T07:59:36.786Z,19.90
2023-02-14T08:01:39.339Z,21.80
2023-02-14T08:03:44.550Z,24.45
2023-02-14T08:05:57.406Z,40.67
2023-02-14T08:07:59.890Z,45.70
2023-02-14T08:10:02.367Z,48.75
2023-02-14T08:12:23.246Z,49.33
2023-02-14T08:14:25.651Z,45.22
2023-02-14T08:16:28.176Z,36.17
2023-02-14T08:18:31.726Z,51.05
2023-02-14T08:20:34.179Z,29.50
2023-02-14T08:22:36.709Z,52.42
2023-02-14T08:24:39.162Z,31.48
2023-02-14T08:26:41.586Z,21.57
2023-02-14T08:28:44.539Z,18.25
2023-02-14T08:30:47.279Z,17.70
2023-02-14T08:32:50.108Z,16.73
2023-02-14T08:34:52.638Z,16.45
2023-02-14T08:36:55.589Z,16.27
2023-02-14T08:38:57.989Z,16.00
2023-02-14T08:41:03.275Z,16.67
2023-02-14T08:43:08.410Z,14.57
2023-02-14T08:45:10.952Z,16.50
2023-02-14T08:47:13.474Z,15.23
2023-02-14T08:49:15.940Z,13.85
2023-02-14T08:51:18.379Z,16.50
2023-02-14T08:53:22.187Z,13.95
2023-02-14T08:55:24.646Z,15.23
2023-02-14T08:57:27.772Z,13.83
2023-02-14T08:59:30.366Z,13.43
2023-02-14T09:01:33.002Z,14.02
2023-02-14T09:03:38.119Z,14.57
2023-02-14T09:05:40.943Z,15.75
2023-02-14T09:07:43.602Z,15.90
2023-02-14T09:09:46.127Z,15.65
2023-02-14T09:11:48.935Z,16.33
2023-02-14T09:13:55.578Z,17.20
2023-02-14T09:15:58.152Z,18.05
2023-02-14T09:18:00.681Z,17.73
2023-02-14T09:20:03.878Z,17.30
2023-02-14T09:22:08.094Z,20.02
2023-02-14T09:24:10.590Z,18.95
2023-02-14T09:26:14.678Z,18.77
2023-02-14T09:28:17.177Z,18.33
2023-02-14T09:30:19.747Z,17.90
2023-02-14T09:32:22.401Z,17.85
2023-02-14T09:34:31.376Z,17.20
2023-02-14T09:36:34.143Z,14.52
2023-02-14T09:38:36.595Z,15.17
2023-02-14T09:40:39.064Z,15.38
2023-02-14T09:42:44.324Z,14.80
2023-02-14T09:44:51.790Z,15.45
2023-02-14T09:46:56.834Z,17.08
2023-02-14T09:48:59.713Z,13.83
2023-02-14T09:51:07.844Z,15.48
2023-02-14T09:53:18.681Z,13.73
2023-02-14T09:55:21.350Z,12.68
2023-02-14T09:57:52.742Z,13.65
2023-02-14T09:59:58.492Z,13.23
2023-02-14T10:02:19.430Z,11.80
2023-02-14T10:04:42.124Z,11.82
2023-02-14T10:07:09.931Z,12.02
2023-02-14T10:09:38.143Z,11.20
2023-02-14T10:11:42.060Z,9.70
2023-02-14T10:14:10.873Z,9.45
2023-02-14T10:16:27.161Z,10.43
2023-02-14T10:18:54.674Z,11.10
2023-02-14T10:20:59.654Z,10.90
2023-02-14T10:23:25.215Z,10.70
2023-02-14T10:25:32.425Z,11.32
2023-02-14T10:27:42.301Z,11.82
2023-02-14T10:29:44.880Z,10.80
2023-02-14T10:32:01.644Z,11.75
2023-02-14T10:34:18.061Z,10.87
2023-02-14T10:36:43.484Z,10.48
2023-02-14T10:39:04.456Z,10.10
2023-02-14T10:41:18.986Z,10.40
2023-02-14T10:43:40.416Z,11.68
2023-02-14T10:45:46.398Z,10.07
2023-02-14T10:48:09.479Z,10.13
2023-02-14T10:50:17.079Z,10.00
2023-02-14T10:52:30.054Z,13.10
2023-02-14T10:54:39.080Z,9.35
2023-02-14T10:56:45.466Z,9.90
2023-02-14T10:58:49.825Z,9.60
2023-02-14T11:01:29.140Z,8.60
2023-02-14T11:03:31.857Z,10.02
2023-02-14T11:05:35.177Z,11.38
2023-02-14T11:07:37.561Z,10.13
2023-02-14T11:09:39.954Z,9.43
2023-02-14T11:11:54.854Z,10.95
2023-02-14T11:13:57.295Z,10.35
2023-02-14T11:16:01.744Z,9.45
2023-02-14T11:18:24.913Z,10.60
2023-02-14T11:20:31.482Z,8.73
2023-02-14T11:22:35.511Z,9.88
2023-02-14T11:24:41.524Z,10.77
2023-02-14T11:26:47.636Z,10.77
2023-02-14T11:28:56.894Z,11.07
2023-02-14T11:30:59.980Z,9.32
2023-02-14T11:33:04.338Z,9.98
2023-02-14T11:35:18.985Z,11.95
2023-02-14T11:37:25.162Z,9.15
2023-02-14T11:39:33.305Z,10.90
2023-02-14T11:41:56.963Z,10.65
2023-02-14T11:44:22.486Z,10.48
2023-02-14T11:46:26.400Z,10.48
2023-02-14T11:48:38.145Z,11.40
2023-02-14T11:50:42.585Z,10.47
2023-02-14T11:52:57.189Z,12.55
2023-02-14T11:55:00.129Z,10.00
2023-02-14T11:57:08.883Z,10.90
2023-02-14T11:59:13.612Z,9.98
2023-02-14T12:01:25.502Z,10.57
2023-02-14T12:03:29.470Z,11.02
2023-02-14T12:05:32.888Z,11.35
2023-02-14T12:07:37.905Z,10.02
2023-02-14T12:09:42.707Z,11.75
2023-02-14T12:12:01.392Z,10.83
2023-02-14T12:14:03.882Z,11.60
2023-02-14T12:16:10.661Z,11.00
2023-02-14T12:18:41.691Z,11.95
2023-02-14T12:21:13.287Z,10.77
2023-02-14T12:23:35.894Z,10.30
2023-02-14T12:25:48.017Z,11.88
2023-02-14T12:28:01.533Z,10.48
2023-02-14T12:30:15.839Z,11.55
2023-02-14T12:32:23.872Z,11.48
2023-02-14T12:34:26.369Z,13.77
2023-02-14T12:36:54.167Z,12.18
2023-02-14T12:39:29.105Z,13.27
2023-02-14T12:41:55.437Z,11.73
2023-02-14T12:44:07.613Z,16.02
2023-02-14T12:46:14.201Z,12.47
2023-02-14T12:48:50.502Z,11.70
2023-02-14T12:51:07.997Z,13.52
2023-02-14T12:53:42.611Z,10.20
2023-02-14T12:55:57.936Z,11.05
2023-02-14T12:58:03.088Z,11.47
2023-02-14T13:00:15.095Z,11.23
2023-02-14T13:02:23.034Z,11.80
2023-02-14T13:04:44.328Z,11.25
2023-02-14T13:07:24.856Z,11.77
2023-02-14T13:09:27.661Z,11.00
2023-02-14T13:11:51.603Z,12.18
2023-02-14T13:14:15.458Z,10.63
2023-02-14T13:16:26.498Z,10.88
2023-02-14T13:18:55.022Z,12.00
2023-02-14T13:21:00.326Z,11.77
2023-02-14T13:23:39.727Z,10.65
2023-02-14T13:26:12.905Z,10.30
2023-02-14T13:28:16.562Z,10.88
2023-02-14T13:30:26.078Z,11.43
2023-02-14T13:32:33.620Z,12.30
2023-02-14T13:34:39.215Z,13.80
2023-02-14T13:36:42.471Z,12.55
2023-02-14T13:38:48.408Z,12.10
2023-02-14T13:40:51.101Z,12.40
2023-02-14T13:42:56.378Z,12.37
2023-02-14T13:44:58.854Z,12.60
2023-02-14T13:47:01.273Z,14.73
2023-02-14T13:49:03.719Z,12.50
2023-02-14T13:51:08.630Z,12.68
2023-02-14T13:53:14.054Z,13.57
2023-02-14T13:55:25.325Z,12.23
2023-02-14T13:57:40.779Z,12.55
2023-02-14T13:59:43.285Z,12.57
2023-02-14T14:01:50.682Z,10.98
2023-02-14T14:03:55.406Z,11.20
2023-02-14T14:06:12.686Z,10.70
2023-02-14T14:08:21.179Z,12.85
2023-02-14T14:11:03.182Z,11.88
2023-02-14T14:13:08.087Z,12.43
2023-02-14T14:15:13.312Z,10.50
2023-02-14T14:17:21.238Z,11.43
2023-02-14T14:19:23.658Z,11.57
2023-02-14T14:21:29.863Z,10.82
2023-02-14T14:23:42.446Z,10.95
2023-02-14T14:25:45.717Z,11.60
2023-02-14T14:27:48.147Z,11.45
2023-02-14T14:29:55.291Z,11.18
2023-02-14T14:31:58.267Z,10.77
2023-02-14T14:34:02.158Z,12.65
2023-02-14T14:36:08.167Z,10.90
2023-02-14T14:38:14.511Z,10.60
2023-02-14T14:40:30.073Z,11.98
2023-02-14T14:42:40.248Z,11.00
2023-02-14T14:45:03.941Z,11.40
2023-02-14T14:47:07.452Z,12.40
2023-02-14T14:49:11.242Z,11.48
2023-02-14T14:51:25.780Z,13.43
2023-02-14T14:54:06.793Z,12.57
2023-02-14T14:56:25.727Z,13.18
2023-02-14T14:58:30.851Z,30.63
2023-02-14T15:00:39.042Z,15.15
2023-02-14T15:02:42.154Z,14.20
2023-02-14T15:04:44.619Z,13.27
2023-02-14T15:06:48.800Z,13.52
2023-02-14T15:08:51.971Z,13.77
2023-02-14T15:11:03.070Z,13.50
2023-02-14T15:13:24.316Z,12.68
2023-02-14T15:15:26.789Z,12.73
2023-02-14T15:17:31.926Z,12.15
2023-02-14T15:19:44.216Z,13.07
2023-02-14T15:21:47.195Z,12.32
2023-02-14T15:23:50.514Z,13.60
2023-02-14T15:25:53.486Z,12.98
2023-02-14T15:27:57.317Z,12.23
2023-02-14T15:30:05.448Z,13.30
2023-02-14T15:32:10.483Z,11.82
2023-02-14T15:34:13.604Z,12.52
2023-02-14T15:36:19.569Z,12.48
2023-02-14T15:38:24.164Z,12.77
2023-02-14T15:40:28.990Z,13.53
2023-02-14T15:42:33.229Z,13.00
2023-02-14T15:44:35.655Z,13.80
2023-02-14T15:46:41.609Z,11.90
2023-02-14T15:48:44.747Z,11.93
2023-02-14T15:50:52.838Z,12.17
2023-02-14T15:52:56.953Z,13.05
2023-02-14T15:54:59.353Z,14.07
2023-02-14T15:57:02.344Z,16.33
2023-02-14T15:59:07.256Z,14.07
2023-02-14T16:01:09.840Z,13.30
2023-02-14T16:03:20.533Z,14.65
2023-02-14T16:05:24.802Z,14.02
2023-02-14T16:07:29.721Z,14.05
2023-02-14T16:09:36.041Z,14.02
2023-02-14T16:11:39.947Z,17.80
2023-02-14T16:13:46.929Z,15.13
2023-02-14T16:16:01.527Z,17.20
2023-02-14T16:18:15.853Z,14.15
2023-02-14T16:20:43.300Z,17.70
2023-02-14T16:22:45.803Z,17.47
2023-02-14T16:24:48.237Z,16.48
2023-02-14T16:26:50.659Z,17.17
2023-02-14T16:28:53.674Z,17.25
2023-02-14T16:31:02.801Z,17.90
2023-02-14T16:33:07.490Z,16.27
2023-02-14T16:35:18.480Z,18.35
2023-02-14T16:37:28.105Z,16.85
2023-02-14T16:39:32.931Z,20.02
2023-02-14T16:41:35.791Z,17.90
2023-02-14T16:43:38.408Z,15.97
2023-02-14T16:45:41.333Z,13.55
2023-02-14T16:47:45.847Z,15.82
2023-02-14T16:49:48.781Z,16.90
2023-02-14T16:51:52.440Z,14.55
2023-02-14T16:53:57.158Z,13.77
2023-02-14T16:55:59.800Z,14.25
2023-02-14T16:58:03.665Z,14.30
2023-02-14T17:00:07.403Z,14.13
2023-02-14T17:02:09.894Z,13.60
2023-02-14T17:04:12.430Z,13.60
2023-02-14T17:06:19.351Z,12.35
2023-02-14T17:08:22.011Z,13.63
2023-02-14T17:10:25.008Z,13.40
2023-02-14T17:12:31.000Z,14.63
2023-02-14T17:14:36.841Z,13.87
2023-02-14T17:16:39.461Z,14.75
2023-02-14T17:18:43.594Z,14.10
2023-02-14T17:20:46.127Z,12.98
2023-02-14T17:22:49.282Z,14.18
2023-02-14T17:24:51.701Z,13.40
2023-02-14T17:26:54.664Z,13.18
2023-02-14T17:28:57.069Z,14.55
2023-02-14T17:31:00.805Z,14.57
2023-02-14T17:33:03.635Z,15.68
2023-02-14T17:35:08.960Z,16.23
2023-02-14T17:37:11.812Z,14.90
2023-02-14T17:39:15.031Z,16.73
2023-02-14T17:41:22.962Z,17.92
2023-02-14T17:43:25.436Z,16.35
2023-02-14T17:45:28.166Z,16.97
2023-02-14T17:47:30.660Z,17.05
2023-02-14T17:49:33.408Z,18.35
2023-02-14T17:51:36.018Z,17.75
2023-02-14T17:53:38.563Z,18.13
2023-02-14T17:55:41.002Z,20.07
2023-02-14T17:57:43.434Z,19.35
2023-02-14T17:59:46.879Z,18.88
2023-02-14T18:01:49.319Z,20.13
2023-02-14T18:03:53.108Z,21.05
2023-02-14T18:05:58.716Z,15.43
2023-02-14T18:08:01.129Z,17.33
2023-02-14T18:10:03.667Z,15.85
2023-02-14T18:12:07.275Z,16.63
2023-02-14T18:14:10.084Z,16.35
2023-02-14T18:16:15.117Z,18.60
2023-02-14T18:18:17.750Z,16.60
2023-02-14T18:20:23.215Z,19.13
2023-02-14T18:22:28.428Z,17.98
2023-02-14T18:24:30.950Z,17.83
2023-02-14T18:26:36.092Z,15.33
2023-02-14T18:28:38.848Z,16.02
2023-02-14T18:30:41.234Z,18.75
2023-02-14T18:32:43.893Z,16.50
2023-02-14T18:34:46.413Z,17.40
2023-02-14T18:36:48.824Z,16.73
2023-02-14T18:38:51.294Z,16.67
2023-02-14T18:40:53.764Z,17.63
2023-02-14T18:42:56.202Z,17.25
2023-02-14T18:44:58.583Z,15.73
2023-02-14T18:47:01.957Z,16.70
2023-02-14T18:49:07.115Z,16.40
2023-02-14T18:51:15.498Z,16.90
2023-02-14T18:53:17.882Z,16.95
2023-02-14T18:55:20.291Z,16.80
2023-02-14T18:57:22.743Z,17.90
2023-02-14T18:59:25.235Z,16.10
2023-02-14T19:01:31.251Z,18.00
2023-02-14T19:03:33.635Z,16.17
2023-02-14T19:05:38.534Z,27.95
2023-02-14T19:07:41.001Z,16.00
2023-02-14T19:09:43.525Z,15.55
2023-02-14T19:11:46.451Z,17.40
2023-02-14T19:13:53.751Z,16.00
2023-02-14T19:15:56.999Z,15.25
2023-02-14T19:17:59.605Z,17.27
2023-02-14T19:20:08.412Z,16.30
2023-02-14T19:22:11.220Z,14.63
2023-02-14T19:24:16.454Z,16.35
2023-02-14T19:26:21.408Z,15.70
2023-02-14T19:28:24.105Z,14.77
2023-02-14T19:30:26.726Z,14.52
2023-02-14T19:32:29.266Z,16.17
2023-02-14T19:34:32.570Z,15.70
2023-02-14T19:36:39.195Z,15.88
2023-02-14T19:38:43.035Z,17.77
2023-02-14T19:40:45.474Z,17.65
2023-02-14T19:42:47.930Z,18.05
2023-02-14T19:44:50.361Z,18.35
2023-02-14T19:46:56.657Z,16.27
2023-02-14T19:49:00.015Z,16.73
2023-02-14T19:51:02.792Z,16.55
2023-02-14T19:53:05.603Z,13.68
2023-02-14T19:55:08.620Z,16.27
2023-02-14T19:57:14.162Z,16.70
2023-02-14T19:59:20.380Z,14.17
2023-02-14T20:01:31.835Z,14.35
2023-02-14T20:03:37.255Z,14.05
2023-02-14T20:05:39.890Z,13.80
2023-02-14T20:07:43.512Z,12.48
2023-02-14T20:09:45.986Z,13.67
2023-02-14T20:11:54.582Z,12.90
2023-02-14T20:13:57.450Z,14.93
2023-02-14T20:15:59.862Z,19.40
2023-02-14T20:18:02.650Z,13.63
2023-02-14T20:20:08.480Z,13.43
2023-02-14T20:22:13.322Z,11.70
2023-02-14T20:24:20.945Z,13.18
2023-02-14T20:26:23.621Z,12.82
2023-02-14T20:28:25.983Z,13.25
2023-02-14T20:30:28.579Z,12.13
2023-02-14T20:32:31.680Z,12.18
2023-02-14T20:34:34.309Z,12.57
2023-02-14T20:36:37.061Z,12.77
2023-02-14T20:38:39.593Z,12.43
2023-02-14T20:40:43.451Z,11.47
2023-02-14T20:42:48.730Z,11.98
2023-02-14T20:44:51.196Z,12.23
2023-02-14T20:46:54.975Z,12.40
2023-02-14T20:48:57.492Z,12.15
2023-02-14T20:51:10.159Z,13.33
2023-02-14T20:53:12.573Z,13.18
2023-02-14T20:55:15.047Z,12.20
2023-02-14T20:57:17.582Z,10.55
2023-02-14T20:59:26.333Z,11.18
2023-02-14T21:01:31.865Z,11.67
2023-02-14T21:03:36.051Z,12.77
2023-02-14T21:05:38.609Z,12.10
2023-02-14T21:07:41.077Z,12.38
2023-02-14T21:09:43.527Z,13.65
2023-02-14T21:11:45.987Z,12.60
2023-02-14T21:13:48.556Z,13.15
2023-02-14T21:15:51.156Z,12.05
2023-02-14T21:17:53.938Z,12.65
2023-02-14T21:19:56.381Z,12.88
2023-02-14T21:21:58.899Z,13.60
2023-02-14T21:24:09.437Z,15.02
2023-02-14T21:26:11.823Z,12.45
2023-02-14T21:28:14.355Z,12.02
2023-02-14T21:30:19.696Z,13.95
2023-02-14T21:32:25.344Z,13.40
2023-02-14T21:34:28.201Z,12.20
2023-02-14T21:36:33.064Z,12.57
2023-02-14T21:38:36.118Z,10.88
2023-02-14T21:40:38.604Z,11.57
2023-02-14T21:42:41.396Z,13.43
2023-02-14T21:45:02.358Z,14.32
2023-02-14T21:47:04.954Z,13.30
2023-02-14T21:49:26.114Z,13.68
2023-02-14T21:51:28.931Z,12.02
2023-02-14T21:53:31.709Z,12.47
2023-02-14T21:55:35.071Z,12.57
2023-02-14T21:57:39.928Z,12.50
2023-02-14T21:59:44.509Z,11.30
2023-02-14T22:01:47.167Z,13.82
2023-02-14T22:03:52.921Z,12.57
2023-02-14T22:06:07.758Z,14.15
2023-02-14T22:08:10.400Z,13.88
2023-02-14T22:10:19.517Z,13.93
2023-02-14T22:12:24.505Z,13.10
2023-02-14T22:14:29.466Z,14.13
2023-02-14T22:16:32.099Z,13.77
2023-02-14T22:18:35.176Z,12.52
2023-02-14T22:20:38.021Z,12.63
2023-02-14T22:22:40.791Z,13.82
2023-02-14T22:24:43.222Z,14.13
2023-02-14T22:26:45.810Z,13.23
2023-02-14T22:28:49.122Z,15.13
2023-02-14T22:30:51.635Z,14.43
2023-02-14T22:32:54.125Z,13.43
2023-02-14T22:34:56.561Z,15.30
2023-02-14T22:36:59.176Z,17.60
2023-02-14T22:39:01.691Z,15.85
2023-02-14T22:41:12.896Z,18.20
2023-02-14T22:43:15.780Z,16.45
2023-02-14T22:45:21.446Z,16.40
2023-02-14T22:47:24.362Z,16.92
2023-02-14T22:49:26.901Z,17.27
2023-02-14T22:51:37.312Z,19.48
2023-02-14T22:53:40.139Z,17.38
2023-02-14T22:55:42.848Z,16.67
2023-02-14T22:57:47.641Z,16.60
2023-02-14T22:59:55.203Z,17.55
2023-02-14T23:02:03.602Z,18.77
2023-02-14T23:04:06.532Z,18.27
2023-02-14T23:06:35.703Z,18.23
2023-02-14T23:08:57.035Z,14.25
2023-02-14T23:11:16.850Z,17.25
2023-02-14T23:16:21.804Z,16.80
2023-02-14T23:18:42.827Z,18.03
2023-02-14T23:21:21.675Z,17.27
2023-02-14T23:23:24.256Z,17.83
2023-02-14T23:25:29.030Z,15.88
2023-02-14T23:27:52.190Z,15.63
2023-02-14T23:29:54.686Z,15.00
2023-02-14T23:31:57.818Z,15.43
2023-02-14T23:34:00.537Z,16.08
2023-02-14T23:36:04.349Z,16.10
2023-02-14T23:38:06.873Z,15.05
2023-02-14T23:40:12.564Z,15.80
2023-02-14T23:42:16.280Z,15.82
2023-02-14T23:44:30.415Z,17.50
2023-02-14T23:46:32.864Z,15.90
2023-02-14T23:48:36.273Z,16.15
2023-02-14T23:50:41.072Z,14.20
2023-02-14T23:52:44.859Z,14.40
2023-02-14T23:54:47.448Z,14.88
2023-02-14T23:56:50.747Z,13.95
2023-02-14T23:58:53.548Z,15.10
